Time;durP1;ratioP1;P1;durP2;ratioP2;P2;SDS_P1;SDS_P2;PMS_P1;PMS_P2;Temp;Humidity;BMP_temperature;BMP_pressure;BME280_temperature;BME280_humidity;BME280_pressure;Samples;Min_cycle;Max_cycle;Signal;HPM_P1;HPM_P2
2021/06/15 00:00:01;;;;;;;8.15;1.80;;;15.70;95.50;;;;;;5032828;28;20419;-70
2021/06/15 00:02:32;;;;;;;8.48;2.05;;;15.70;95.50;;;;;;5033095;28;20458;-70
2021/06/15 00:04:58;;;;;;;10.55;1.83;;;15.80;95.60;;;;;;5032934;28;20044;-70
2021/06/15 00:07:25;;;;;;;9.02;1.90;;;15.80;95.60;;;;;;5033279;28;20493;-70
2021/06/15 00:09:52;;;;;;;10.18;1.88;;;15.60;95.50;;;;;;5033075;28;20064;-70
2021/06/15 00:12:18;;;;;;;8.43;2.15;;;15.70;95.50;;;;;;5032851;28;20450;-70
2021/06/15 00:14:44;;;;;;;7.38;1.38;;;15.70;95.60;;;;;;5032951;28;20083;-70
2021/06/15 00:17:10;;;;;;;7.20;1.77;;;15.70;95.80;;;;;;5032896;28;20466;-70
2021/06/15 00:19:36;;;;;;;7.35;1.38;;;15.80;95.70;;;;;;5033093;28;20046;-70
2021/06/15 00:22:02;;;;;;;10.35;2.22;;;15.70;95.70;;;;;;5032883;28;20041;-70
2021/06/15 00:24:36;;;;;;;8.40;2.17;;;15.60;95.80;;;;;;5033405;28;20034;-70
2021/06/15 00:27:02;;;;;;;9.77;1.88;;;15.50;95.90;;;;;;5033498;28;20041;-70
2021/06/15 00:29:28;;;;;;;9.10;1.50;;;15.40;96.10;;;;;;5034519;28;20116;-70
2021/06/15 00:31:54;;;;;;;7.88;1.90;;;15.50;96.10;;;;;;5036371;28;20045;-70
2021/06/15 00:34:19;;;;;;;7.93;1.60;;;15.50;96.10;;;;;;5036739;28;20037;-70
2021/06/15 00:36:48;;;;;;;8.35;1.35;;;15.60;96.20;;;;;;5036611;28;20049;-70
2021/06/15 00:39:32;;;;;;;5.90;1.25;;;15.60;96.20;;;;;;5036133;28;20067;-70
2021/06/15 00:41:59;;;;;;;10.15;1.65;;;15.60;96.10;;;;;;5036921;28;20030;-70
2021/06/15 00:44:25;;;;;;;7.82;2.10;;;15.60;96.10;;;;;;5036326;28;20037;-70
2021/06/15 00:46:50;;;;;;;9.10;1.70;;;15.70;96.00;;;;;;5036290;28;20042;-70
2021/06/15 00:49:23;;;;;;;7.78;1.90;;;15.70;96.00;;;;;;5036268;28;20041;-70
2021/06/15 00:51:49;;;;;;;8.93;1.75;;;15.70;95.90;;;;;;5036832;28;20121;-70
2021/06/15 00:54:16;;;;;;;8.98;1.83;;;15.70;96.00;;;;;;5036685;28;20037;-70
2021/06/15 00:56:42;;;;;;;6.35;1.45;;;15.70;96.00;;;;;;5036342;28;20041;-70
2021/06/15 00:59:07;;;;;;;10.57;1.80;;;15.70;96.00;;;;;;5035970;28;20033;-70
2021/06/15 01:01:33;;;;;;;9.80;2.47;;;15.70;96.10;;;;;;5035966;28;20076;-70
2021/06/15 01:03:59;;;;;;;5.07;1.55;;;15.70;96.10;;;;;;5036328;28;20034;-70
2021/06/15 01:06:53;;;;;;;7.47;1.90;;;15.70;96.10;;;;;;5035214;28;20084;-70
2021/06/15 01:09:28;;;;;;;8.23;1.58;;;15.60;96.20;;;;;;5035561;28;20045;-70
2021/06/15 01:12:12;;;;;;;8.55;1.70;;;15.60;96.20;;;;;;5035705;28;20049;-70
2021/06/15 01:14:41;;;;;;;8.75;1.38;;;15.60;96.40;;;;;;5035736;28;20053;-70
2021/06/15 01:17:20;;;;;;;10.00;1.50;;;15.60;96.40;;;;;;5036030;28;20482;-70
2021/06/15 01:20:03;;;;;;;6.78;2.03;;;15.50;96.40;;;;;;5035755;28;20037;-70
2021/06/15 01:22:43;;;;;;;8.63;1.45;;;15.50;96.60;;;;;;5036363;28;20489;-70
2021/06/15 01:25:27;;;;;;;5.32;1.42;;;15.50;96.70;;;;;;5035824;28;20037;-70
2021/06/15 01:28:11;;;;;;;19.55;3.35;;;15.50;96.80;;;;;;5034474;28;20042;-70
2021/06/15 01:30:57;;;;;;;;;;;15.50;96.70;;;;;;5035463;28;20043;-70
2021/06/15 01:33:23;;;;;;;11.45;1.83;;;15.30;96.50;;;;;;5035932;28;19917;-70
2021/06/15 01:35:51;;;;;;;6.88;1.90;;;15.40;96.90;;;;;;5035316;28;20054;-70
2021/06/15 01:38:20;;;;;;;12.07;1.60;;;15.40;96.90;;;;;;5034306;28;20474;-70
2021/06/15 01:40:53;;;;;;;8.40;1.88;;;15.40;96.90;;;;;;5034256;28;20444;-69
2021/06/15 01:43:32;;;;;;;10.23;2.55;;;15.40;97.00;;;;;;5035837;28;20044;-70
2021/06/15 01:45:58;;;;;;;9.48;1.85;;;15.30;97.00;;;;;;5035254;28;20029;-70
2021/06/15 01:48:48;;;;;;;8.90;1.50;;;15.20;97.00;;;;;;5035232;28;20049;-70
2021/06/15 01:51:16;;;;;;;10.60;1.88;;;15.20;97.20;;;;;;5035263;28;20098;-70
2021/06/15 01:53:51;;;;;;;11.65;1.50;;;15.20;97.10;;;;;;5035349;28;20117;-70
2021/06/15 01:56:19;;;;;;;9.82;1.63;;;15.10;97.10;;;;;;5035523;28;20049;-70
2021/06/15 01:58:47;;;;;;;7.07;1.90;;;15.10;96.90;;;;;;5035151;28;20041;-70
2021/06/15 02:01:16;;;;;;;8.80;2.10;;;15.20;97.00;;;;;;5034787;28;20120;-70
2021/06/15 02:03:45;;;;;;;12.65;2.70;;;15.10;97.00;;;;;;5035242;28;20474;-70
2021/06/15 02:06:12;;;;;;;5.40;1.92;;;15.20;96.90;;;;;;5034637;28;20474;-70
2021/06/15 02:08:50;;;;;;;11.70;2.13;;;15.20;97.00;;;;;;5034560;28;20095;-70
2021/06/15 02:11:19;;;;;;;5.72;1.52;;;15.30;97.00;;;;;;5033519;28;20049;-70
2021/06/15 02:14:16;;;;;;;13.45;2.60;;;15.30;96.90;;;;;;5033731;28;20104;-70
2021/06/15 02:16:51;;;;;;;4.82;1.40;;;15.40;96.80;;;;;;5034686;28;20095;-70
2021/06/15 02:19:29;;;;;;;10.02;1.65;;;15.40;96.70;;;;;;5034157;28;20100;-70
2021/06/15 02:22:17;;;;;;;6.55;1.73;;;15.40;96.70;;;;;;5034391;28;20037;-70
2021/06/15 02:25:04;;;;;;;6.88;1.70;;;15.30;96.90;;;;;;5033826;28;20041;-70
2021/06/15 02:27:50;;;;;;;10.65;2.10;;;15.30;96.80;;;;;;5034299;28;20049;-70
2021/06/15 02:30:16;;;;;;;12.30;2.38;;;15.30;96.80;;;;;;5034016;28;20068;-70
2021/06/15 02:32:44;;;;;;;7.38;2.05;;;15.30;96.80;;;;;;5034136;28;20120;-70
2021/06/15 02:35:11;;;;;;;9.13;1.70;;;15.30;96.80;;;;;;5034483;28;20500;-70
2021/06/15 02:37:46;;;;;;;6.50;1.60;;;15.20;96.70;;;;;;5034532;28;20125;-70
2021/06/15 02:40:14;;;;;;;10.32;1.70;;;15.20;96.80;;;;;;5034159;28;20481;-70
2021/06/15 02:42:43;;;;;;;9.85;2.00;;;15.20;96.80;;;;;;5034751;28;20037;-70
2021/06/15 02:45:13;;;;;;;17.00;2.38;;;15.20;97.00;;;;;;5033892;28;20482;-70
2021/06/15 02:47:43;;;;;;;11.63;2.40;;;15.10;96.80;;;;;;5034652;28;20065;-70
2021/06/15 02:50:11;;;;;;;6.18;1.95;;;15.10;96.80;;;;;;5033836;28;20034;-70
2021/06/15 02:52:44;;;;;;;10.13;2.40;;;15.10;96.80;;;;;;5033173;28;20120;-70
2021/06/15 02:55:17;;;;;;;10.27;2.38;;;15.10;96.80;;;;;;5034490;28;20477;-70
2021/06/15 02:57:42;;;;;;;9.75;2.00;;;15.00;96.80;;;;;;5034372;28;20099;-70
2021/06/15 03:00:10;;;;;;;4.90;1.70;;;15.00;96.70;;;;;;5033334;28;20037;-70
2021/06/15 03:02:36;;;;;;;7.35;1.65;;;15.10;96.70;;;;;;5034176;28;20124;-70
2021/06/15 03:05:06;;;;;;;7.93;1.83;;;15.00;96.60;;;;;;5033618;28;20128;-70
2021/06/15 03:07:33;;;;;;;10.50;2.10;;;14.90;96.70;;;;;;5034333;28;20061;-70
2021/06/15 03:10:05;;;;;;;6.32;2.13;;;15.00;96.70;;;;;;5033217;28;20037;-70
2021/06/15 03:12:35;;;;;;;8.48;1.67;;;15.00;96.80;;;;;;5034068;28;20044;-70
2021/06/15 03:15:09;;;;;;;6.45;1.60;;;15.00;96.70;;;;;;5034220;28;20049;-70
2021/06/15 03:17:38;;;;;;;6.22;2.13;;;15.00;96.60;;;;;;5034089;28;20053;-70
2021/06/15 03:20:09;;;;;;;10.98;2.40;;;15.00;96.40;;;;;;5033604;28;20038;-70
2021/06/15 03:22:51;;;;;;;9.82;1.83;;;15.10;96.30;;;;;;5033493;28;20492;-70
2021/06/15 03:25:23;;;;;;;7.70;1.90;;;15.00;96.20;;;;;;5033485;28;20084;-70
2021/06/15 03:27:58;;;;;;;10.68;1.85;;;15.00;96.10;;;;;;5033773;28;20363;-70
2021/06/15 03:30:46;;;;;;;7.43;1.60;;;15.00;96.10;;;;;;5032384;28;20049;-70
2021/06/15 03:33:27;;;;;;;13.63;2.28;;;15.00;96.20;;;;;;5033061;28;20050;-70
2021/06/15 03:35:59;;;;;;;7.30;1.77;;;15.00;96.20;;;;;;5033859;28;20124;-70
2021/06/15 03:38:29;;;;;;;10.60;1.83;;;15.00;96.30;;;;;;5033458;28;20124;-70
2021/06/15 03:40:59;;;;;;;11.52;2.10;;;15.10;96.20;;;;;;5033323;28;20088;-70
2021/06/15 03:43:26;;;;;;;12.98;3.03;;;15.10;96.20;;;;;;5033170;28;20038;-70
2021/06/15 03:46:01;;;;;;;12.65;2.10;;;15.10;96.20;;;;;;5033707;28;20469;-70
2021/06/15 03:48:28;;;;;;;13.55;3.53;;;15.10;96.10;;;;;;5032965;28;20041;-70
2021/06/15 03:50:57;;;;;;;12.10;2.90;;;15.00;96.10;;;;;;5033719;28;20042;-70
2021/06/15 03:53:29;;;;;;;11.85;2.15;;;15.10;96.20;;;;;;5033854;28;20041;-70
2021/06/15 03:55:57;;;;;;;9.70;2.47;;;15.00;96.20;;;;;;5033659;28;20092;-70
2021/06/15 03:58:23;;;;;;;10.60;2.63;;;15.10;96.20;;;;;;5033518;28;20063;-70
2021/06/15 04:00:50;;;;;;;8.70;1.92;;;15.10;96.10;;;;;;5033089;28;20434;-70
2021/06/15 04:03:17;;;;;;;7.13;1.95;;;15.10;96.00;;;;;;5033661;28;20462;-70
2021/06/15 04:05:46;;;;;;;6.20;1.80;;;15.10;96.00;;;;;;5037267;28;20041;-70
2021/06/15 04:08:14;;;;;;;7.07;1.73;;;15.20;96.10;;;;;;5037134;28;20552;-70
2021/06/15 04:10:46;;;;;;;10.68;2.22;;;15.20;96.20;;;;;;5035731;28;20547;-70
2021/06/15 04:13:14;;;;;;;9.60;2.00;;;15.20;96.20;;;;;;5037057;28;20060;-70
2021/06/15 04:15:42;;;;;;;11.50;2.45;;;15.20;96.10;;;;;;5036874;28;20095;-70
2021/06/15 04:18:09;;;;;;;5.85;1.98;;;15.20;96.00;;;;;;5036900;28;20108;-70
2021/06/15 04:20:40;;;;;;;8.13;2.20;;;15.20;96.00;;;;;;5036367;28;20448;-70
2021/06/15 04:23:08;;;;;;;10.00;2.25;;;15.20;96.10;;;;;;5036658;28;20033;-70
2021/06/15 04:25:39;;;;;;;8.18;2.00;;;15.30;96.10;;;;;;5036828;28;20092;-70
2021/06/15 04:28:05;;;;;;;11.05;2.63;;;15.30;96.10;;;;;;5036721;28;20123;-70
2021/06/15 04:30:50;;;;;;;9.95;2.28;;;15.30;96.00;;;;;;5036347;28;20103;-70
2021/06/15 04:33:18;;;;;;;9.75;2.17;;;15.40;95.90;;;;;;5036499;28;20347;-70
2021/06/15 04:35:48;;;;;;;12.13;2.10;;;15.40;95.80;;;;;;5037030;28;20068;-70
2021/06/15 04:38:47;;;;;;;9.00;2.72;;;15.50;95.90;;;;;;5035438;28;20045;-70
2021/06/15 04:41:17;;;;;;;11.52;2.45;;;15.50;95.70;;;;;;5036923;28;20041;-70
2021/06/15 04:43:54;;;;;;;8.03;2.40;;;15.50;95.60;;;;;;5036806;28;20037;-70
2021/06/15 04:46:34;;;;;;;11.18;2.28;;;15.50;95.60;;;;;;5036815;28;20045;-70
2021/06/15 04:49:08;;;;;;;9.40;2.45;;;15.60;95.70;;;;;;5036170;28;20038;-70
2021/06/15 04:51:34;;;;;;;11.52;2.28;;;15.50;95.50;;;;;;5035511;28;20095;-70
2021/06/15 04:54:02;;;;;;;12.50;3.17;;;15.60;95.40;;;;;;5036766;28;20474;-70
2021/06/15 04:56:29;;;;;;;13.02;2.47;;;15.50;95.30;;;;;;5036157;28;20084;-70
2021/06/15 04:59:00;;;;;;;11.98;2.33;;;15.50;95.20;;;;;;5036117;28;20037;-70
2021/06/15 05:01:27;;;;;;;8.63;1.95;;;15.50;95.10;;;;;;5036108;28;20033;-70
2021/06/15 05:03:56;;;;;;;13.20;2.60;;;15.60;95.10;;;;;;5035896;28;20033;-70
2021/06/15 05:06:25;;;;;;;9.15;2.33;;;15.50;95.00;;;;;;5035899;28;20448;-70
2021/06/15 05:08:56;;;;;;;8.13;2.85;;;15.50;94.90;;;;;;5035561;28;20065;-70
2021/06/15 05:11:24;;;;;;;11.35;2.20;;;15.70;94.60;;;;;;5034666;28;20076;-70
2021/06/15 05:14:12;;;;;;;10.88;2.58;;;15.60;94.60;;;;;;5035117;28;20046;-70
2021/06/15 05:16:40;;;;;;;14.68;3.00;;;15.60;94.50;;;;;;5034795;28;20390;-70
2021/06/15 05:19:06;;;;;;;10.55;2.55;;;15.70;94.40;;;;;;5035265;28;20041;-70
2021/06/15 05:21:43;;;;;;;10.02;2.38;;;15.80;94.60;;;;;;5036134;28;20045;-70
2021/06/15 05:24:26;;;;;;;6.35;2.10;;;15.90;94.50;;;;;;5035626;28;20124;-70
2021/06/15 05:26:51;;;;;;;8.23;2.65;;;16.10;94.30;;;;;;5036088;28;20049;-70
2021/06/15 05:29:18;;;;;;;8.05;2.15;;;16.50;94.20;;;;;;5035521;28;20128;-70
2021/06/15 05:31:44;;;;;;;9.18;2.25;;;16.60;93.60;;;;;;5035629;28;20075;-70
2021/06/15 05:34:09;;;;;;;14.23;2.60;;;16.80;93.10;;;;;;5035624;28;20040;-70
2021/06/15 05:36:36;;;;;;;8.88;2.20;;;17.10;92.60;;;;;;5035380;28;20402;-70
2021/06/15 05:39:03;;;;;;;10.23;2.35;;;17.60;92.10;;;;;;5035083;28;20478;-70
2021/06/15 05:41:28;;;;;;;11.88;2.83;;;17.90;91.20;;;;;;5035385;28;20042;-70
2021/06/15 05:43:55;;;;;;;11.02;2.65;;;18.10;90.10;;;;;;5035267;28;20037;-70
2021/06/15 05:46:20;;;;;;;12.43;2.33;;;18.40;88.80;;;;;;5035036;28;20124;-70
2021/06/15 05:48:46;;;;;;;9.50;2.75;;;18.40;87.70;;;;;;5034722;28;20042;-70
2021/06/15 05:51:12;;;;;;;12.38;2.70;;;18.30;88.10;;;;;;5034937;28;20045;-69
2021/06/15 05:53:38;;;;;;;11.50;2.70;;;18.70;87.70;;;;;;5035678;28;20124;-70
2021/06/15 05:56:06;;;;;;;13.07;2.55;;;18.70;86.70;;;;;;5035431;28;20470;-69
2021/06/15 05:58:32;;;;;;;8.80;2.25;;;18.20;86.00;;;;;;5034776;28;20120;-71
2021/06/15 06:00:58;;;;;;;8.65;2.80;;;18.60;87.10;;;;;;5035079;28;20366;-70
2021/06/15 06:03:32;;;;;;;12.40;2.75;;;18.70;85.80;;;;;;5034962;28;20064;-70
2021/06/15 06:08:44;;;;;;;16.13;2.75;;;18.80;84.80;;;;;;5035037;28;20478;-70
2021/06/15 06:11:10;;;;;;;10.82;2.00;;;18.90;84.20;;;;;;5034712;28;20045;-70
2021/06/15 06:13:36;;;;;;;6.85;2.00;;;18.70;82.60;;;;;;5034474;28;20533;-70
2021/06/15 06:16:05;;;;;;;10.05;2.33;;;18.90;83.30;;;;;;5034491;28;20048;-68
2021/06/15 06:18:33;;;;;;;8.80;2.42;;;19.00;84.00;;;;;;5034878;28;20056;-68
2021/06/15 06:21:08;;;;;;;10.38;2.97;;;19.10;82.20;;;;;;5034527;28;20064;-69
2021/06/15 06:23:37;;;;;;;10.45;2.47;;;18.90;82.00;;;;;;5034800;28;20120;-69
2021/06/15 06:26:06;;;;;;;15.50;2.63;;;19.00;82.20;;;;;;5034725;28;20049;-69
2021/06/15 06:28:31;;;;;;;11.38;3.05;;;19.20;82.30;;;;;;5033979;28;20367;-70
2021/06/15 06:30:57;;;;;;;12.65;2.50;;;19.30;82.60;;;;;;5034281;28;20041;-69
2021/06/15 06:33:23;;;;;;;9.55;3.03;;;19.40;81.10;;;;;;5034552;28;20055;-69
2021/06/15 06:35:49;;;;;;;13.70;2.58;;;20.00;81.10;;;;;;5034141;28;20049;-69
2021/06/15 06:38:15;;;;;;;7.25;1.80;;;19.90;80.30;;;;;;5032454;28;20409;-69
2021/06/15 06:40:41;;;;;;;15.32;3.17;;;20.20;79.30;;;;;;5033644;28;20095;-69
2021/06/15 06:43:08;;;;;;;10.05;2.20;;;20.60;78.70;;;;;;5033173;28;20069;-69
2021/06/15 06:45:33;;;;;;;9.93;2.45;;;20.70;77.70;;;;;;5034305;28;20037;-69
2021/06/15 06:47:59;;;;;;;5.40;1.70;;;20.90;77.10;;;;;;5034423;28;20038;-70
2021/06/15 06:50:25;;;;;;;12.20;2.47;;;20.90;76.80;;;;;;5033454;28;20126;-70
2021/06/15 06:52:50;;;;;;;5.60;2.08;;;20.90;76.80;;;;;;5034032;28;20045;-70
2021/06/15 06:55:20;;;;;;;6.13;1.70;;;20.80;75.90;;;;;;5034355;28;20047;-70
2021/06/15 06:57:47;;;;;;;14.40;2.05;;;21.30;75.60;;;;;;5033804;28;20486;-70
2021/06/15 07:00:14;;;;;;;6.45;1.92;;;21.40;75.50;;;;;;5033347;28;20465;-70
2021/06/15 07:02:40;;;;;;;9.02;2.08;;;21.20;74.40;;;;;;5034248;28;20478;-70
2021/06/15 07:05:06;;;;;;;8.88;2.17;;;21.00;74.20;;;;;;5034223;28;20363;-70
2021/06/15 07:07:33;;;;;;;9.73;2.58;;;21.40;74.80;;;;;;5033765;28;20116;-70
2021/06/15 07:09:59;;;;;;;8.45;2.63;;;21.50;73.90;;;;;;5033314;28;20051;-70
2021/06/15 07:12:25;;;;;;;6.63;1.73;;;21.50;73.30;;;;;;5033660;28;20037;-70
2021/06/15 07:14:53;;;;;;;8.07;2.15;;;21.80;72.50;;;;;;5033548;28;20045;-70
2021/06/15 07:17:19;;;;;;;8.90;2.63;;;22.20;72.90;;;;;;5033515;28;20095;-70
2021/06/15 07:19:45;;;;;;;9.05;1.55;;;22.10;71.70;;;;;;5033192;28;20516;-70
2021/06/15 07:22:11;;;;;;;11.27;2.20;;;22.10;71.90;;;;;;5033931;28;20120;-70
2021/06/15 07:24:37;;;;;;;9.32;2.28;;;22.50;71.90;;;;;;5033485;28;20048;-70
2021/06/15 07:27:23;;;;;;;11.82;2.65;;;22.40;70.60;;;;;;5019288;28;20092;-70
2021/06/15 07:30:01;;;;;;;6.68;2.20;;;21.90;70.70;;;;;;5033044;28;20072;-70
2021/06/15 07:32:47;;;;;;;9.63;2.53;;;21.10;72.20;;;;;;5032660;28;20045;-70
2021/06/15 07:35:32;;;;;;;8.63;2.47;;;20.90;73.00;;;;;;5032928;28;20103;-70
2021/06/15 07:38:19;;;;;;;8.68;2.33;;;20.60;74.40;;;;;;5032735;28;20061;-70
2021/06/15 07:40:44;;;;;;;10.13;2.30;;;20.30;75.40;;;;;;5033377;28;20048;-70
2021/06/15 07:43:32;;;;;;;8.13;1.90;;;20.30;76.30;;;;;;5032561;28;20057;-70
2021/06/15 07:46:17;;;;;;;7.45;1.98;;;20.00;77.50;;;;;;5032735;28;20138;-70
2021/06/15 07:49:04;;;;;;;12.43;2.45;;;20.80;77.60;;;;;;5031630;28;20498;-70
2021/06/15 07:51:34;;;;;;;11.02;2.22;;;20.80;75.80;;;;;;5033275;28;20044;-70
2021/06/15 07:54:20;;;;;;;9.27;2.35;;;20.40;74.90;;;;;;5032470;28;20053;-69
2021/06/15 07:57:07;;;;;;;9.43;2.30;;;20.10;74.90;;;;;;5032983;28;20111;-70
2021/06/15 07:59:53;;;;;;;9.10;2.38;;;20.00;76.20;;;;;;5032333;28;20051;-70
2021/06/15 08:02:39;;;;;;;7.35;1.50;;;19.50;76.40;;;;;;5032303;28;20045;-70
2021/06/15 08:05:25;;;;;;;6.32;1.95;;;20.10;77.50;;;;;;5032869;28;20168;-70
2021/06/15 08:07:52;;;;;;;10.90;2.28;;;20.60;76.00;;;;;;5033157;28;20048;-70
2021/06/15 08:10:37;;;;;;;7.15;2.00;;;21.00;74.60;;;;;;5018139;28;20551;-70
2021/06/15 08:13:03;;;;;;;7.93;1.80;;;21.60;73.40;;;;;;5033103;28;20121;-70
2021/06/15 08:15:30;;;;;;;7.18;2.10;;;21.80;69.20;;;;;;5033491;28;20061;-70
2021/06/15 08:18:13;;;;;;;8.85;2.28;;;21.70;68.90;;;;;;5033264;28;20038;-70
2021/06/15 08:20:40;;;;;;;9.77;2.15;;;22.00;69.20;;;;;;5032576;28;20041;-69
2021/06/15 08:23:07;;;;;;;8.68;2.00;;;21.80;68.50;;;;;;5033156;28;20044;-68
2021/06/15 08:25:54;;;;;;;9.68;1.80;;;21.50;68.10;;;;;;5031815;28;20046;-69
2021/06/15 08:28:20;;;;;;;10.68;1.98;;;20.80;68.00;;;;;;5032741;28;20400;-69
2021/06/15 08:31:07;;;;;;;8.23;2.03;;;21.10;68.50;;;;;;5032145;28;20132;-69
2021/06/15 08:33:33;;;;;;;8.38;2.30;;;21.80;70.50;;;;;;5031556;28;20440;-69
2021/06/15 08:35:59;;;;;;;8.82;2.17;;;22.10;68.60;;;;;;5033349;28;20042;-69
2021/06/15 08:38:45;;;;;;;7.13;1.65;;;22.60;67.30;;;;;;5032359;28;20053;-69
2021/06/15 08:41:10;;;;;;;5.53;1.55;;;23.00;64.40;;;;;;5032623;28;20041;-69
2021/06/15 08:43:36;;;;;;;7.82;1.75;;;23.30;65.10;;;;;;5032629;28;20083;-69
2021/06/15 08:46:02;;;;;;;10.63;2.10;;;23.40;64.40;;;;;;5032591;28;20122;-69
2021/06/15 08:48:28;;;;;;;5.45;1.63;;;23.20;61.50;;;;;;5032602;28;20047;-69
2021/06/15 08:50:54;;;;;;;6.60;1.70;;;23.10;60.70;;;;;;5033200;28;20037;-69
2021/06/15 08:53:19;;;;;;;7.15;1.95;;;22.90;61.50;;;;;;5036136;28;20042;-69
2021/06/15 08:55:51;;;;;;;9.35;1.95;;;23.20;64.00;;;;;;5036279;28;20489;-69
2021/06/15 08:58:45;;;;;;;7.97;2.38;;;23.20;63.90;;;;;;5036860;28;20116;-69
2021/06/15 09:01:13;;;;;;;6.15;1.75;;;23.50;61.70;;;;;;5035953;28;20039;-69
2021/06/15 09:03:39;;;;;;;9.68;2.25;;;23.30;63.80;;;;;;5035990;28;20072;-69
2021/06/15 09:06:05;;;;;;;8.52;2.00;;;22.50;65.60;;;;;;5035737;28;20046;-69
2021/06/15 09:08:31;;;;;;;7.05;2.40;;;21.10;67.30;;;;;;5035543;28;20107;-69
2021/06/15 09:11:03;;;;;;;11.05;2.05;;;21.40;70.30;;;;;;5036032;28;20371;-68
2021/06/15 09:13:39;;;;;;;6.70;1.80;;;21.90;70.70;;;;;;5036009;28;20397;-68
2021/06/15 09:16:19;;;;;;;12.00;2.83;;;22.10;68.40;;;;;;5036296;28;20045;-70
2021/06/15 09:18:45;;;;;;;6.47;2.00;;;22.80;66.60;;;;;;5035958;28;20044;-71
2021/06/15 09:21:11;;;;;;;9.65;2.30;;;23.10;67.00;;;;;;5035600;28;20065;-71
2021/06/15 09:23:40;;;;;;;8.77;1.80;;;23.10;65.60;;;;;;5035561;28;20040;-70
2021/06/15 09:26:06;;;;;;;7.75;2.15;;;22.60;67.00;;;;;;5035454;28;20041;-70
2021/06/15 09:28:33;;;;;;;10.27;2.20;;;21.90;65.10;;;;;;5035506;28;20044;-70
2021/06/15 09:31:09;;;;;;;6.75;2.03;;;21.90;68.70;;;;;;5035387;28;20033;-70
2021/06/15 09:33:47;;;;;;;8.52;2.08;;;21.70;67.10;;;;;;5035323;28;20052;-70
2021/06/15 09:36:15;;;;;;;9.35;1.95;;;21.60;68.70;;;;;;5034844;28;20112;-70
2021/06/15 09:38:58;;;;;;;7.88;2.13;;;21.60;69.30;;;;;;5035125;28;20042;-70
2021/06/15 09:41:33;;;;;;;;;;;20.90;69.80;;;;;;5036282;28;20047;-70
2021/06/15 09:44:12;;;;;;;5.10;1.67;;;20.50;69.40;;;;;;5035269;28;19921;-70
2021/06/15 09:46:49;;;;;;;6.45;1.65;;;21.20;70.30;;;;;;5035336;28;20069;-70
2021/06/15 09:49:29;;;;;;;8.63;2.20;;;21.50;68.20;;;;;;5035187;28;20045;-70
2021/06/15 09:52:13;;;;;;;6.78;1.88;;;21.60;67.10;;;;;;5034935;28;20560;-70
2021/06/15 09:54:40;;;;;;;6.80;1.58;;;21.10;67.50;;;;;;5034948;28;20047;-71
2021/06/15 09:57:09;;;;;;;5.00;1.60;;;20.90;68.90;;;;;;5035098;28;20052;-71
2021/06/15 09:59:34;;;;;;;9.13;1.85;;;21.50;69.10;;;;;;5033602;28;20113;-71
2021/06/15 10:02:00;;;;;;;6.35;2.10;;;21.70;69.70;;;;;;5034836;28;20379;-71
2021/06/15 10:04:27;;;;;;;7.85;1.10;;;21.80;68.40;;;;;;5035356;28;20034;-71
2021/06/15 10:06:59;;;;;;;5.38;1.60;;;21.80;67.90;;;;;;5034800;28;20045;-70
2021/06/15 10:09:33;;;;;;;5.88;1.70;;;21.50;67.30;;;;;;5034566;28;20553;-70
2021/06/15 10:12:07;;;;;;;7.15;1.90;;;21.40;69.10;;;;;;5035157;28;20042;-70
2021/06/15 10:14:37;;;;;;;6.70;1.60;;;21.60;69.20;;;;;;5035267;28;20041;-70
2021/06/15 10:17:03;;;;;;;7.47;1.70;;;21.30;69.30;;;;;;5034463;28;20041;-70
2021/06/15 10:19:29;;;;;;;8.13;1.75;;;21.60;69.30;;;;;;5033207;28;20091;-71
2021/06/15 10:21:56;;;;;;;8.50;1.85;;;21.20;68.10;;;;;;5034347;28;20045;-71
2021/06/15 10:24:23;;;;;;;6.28;2.08;;;21.10;67.30;;;;;;5033589;28;20076;-71
2021/06/15 10:26:51;;;;;;;10.70;1.73;;;21.00;67.20;;;;;;5035058;28;20462;-71
2021/06/15 10:29:17;;;;;;;6.55;1.50;;;21.20;69.40;;;;;;5034386;28;20069;-71
2021/06/15 10:31:46;;;;;;;4.82;1.40;;;21.60;68.00;;;;;;5034188;28;20048;-71
2021/06/15 10:34:12;;;;;;;7.05;1.48;;;21.70;66.20;;;;;;5034270;28;20116;-70
2021/06/15 10:36:46;;;;;;;6.57;1.38;;;21.40;67.90;;;;;;5034355;28;20041;-70
2021/06/15 10:39:41;;;;;;;7.65;1.25;;;21.20;69.50;;;;;;5034076;28;20037;-70
2021/06/15 10:42:25;;;;;;;5.97;1.40;;;21.10;69.10;;;;;;5033404;28;20501;-71
2021/06/15 10:45:13;;;;;;;6.45;1.80;;;20.80;72.10;;;;;;5034342;28;20099;-71
2021/06/15 10:48:04;;;;;;;8.32;1.85;;;20.60;70.10;;;;;;5034515;28;20060;-71
2021/06/15 10:50:38;;;;;;;7.03;1.70;;;20.70;69.00;;;;;;5023953;28;20492;-71
2021/06/15 10:53:08;;;;;;;6.97;1.38;;;21.20;72.30;;;;;;5034187;28;20045;-71
2021/06/15 10:55:49;;;;;;;5.43;1.63;;;20.90;68.90;;;;;;5034251;28;20048;-72
2021/06/15 10:58:34;;;;;;;8.05;1.60;;;20.90;70.70;;;;;;5034060;28;20037;-72
2021/06/15 11:01:26;;;;;;;10.05;1.75;;;21.20;68.70;;;;;;5033647;28;20052;-72
2021/06/15 11:04:00;;;;;;;10.70;2.33;;;21.10;66.60;;;;;;5033868;28;20030;-72
2021/06/15 11:06:29;;;;;;;5.63;1.73;;;21.30;69.20;;;;;;5033566;28;20068;-73
2021/06/15 11:09:17;;;;;;;7.72;1.90;;;21.70;65.60;;;;;;5033542;28;20543;-74
2021/06/15 11:12:05;;;;;;;5.45;1.73;;;21.60;68.00;;;;;;5033711;28;20045;-74
2021/06/15 11:14:31;;;;;;;5.68;1.40;;;21.70;67.40;;;;;;5029106;28;20104;-74
2021/06/15 11:16:59;;;;;;;10.65;2.05;;;22.20;68.70;;;;;;5033558;28;20445;-73
2021/06/15 11:19:25;;;;;;;7.50;1.90;;;22.10;67.70;;;;;;5033453;28;20164;-73
2021/06/15 11:22:07;;;;;;;5.22;1.23;;;22.20;65.70;;;;;;5033993;28;20493;-73
2021/06/15 11:24:37;;;;;;;11.00;1.92;;;22.30;64.30;;;;;;5033402;28;20045;-73
2021/06/15 11:27:27;;;;;;;4.60;1.50;;;21.90;67.30;;;;;;5033841;28;20049;-75
2021/06/15 11:29:59;;;;;;;7.63;1.88;;;21.80;67.40;;;;;;5031812;28;20041;-73
2021/06/15 11:32:27;;;;;;;6.40;1.42;;;21.80;66.80;;;;;;5032174;28;20045;-74
2021/06/15 11:34:55;;;;;;;4.65;1.50;;;21.80;69.20;;;;;;5033320;28;20044;-74
2021/06/15 11:37:28;;;;;;;3.60;1.23;;;21.90;67.80;;;;;;5033318;28;20041;-73
2021/06/15 11:39:54;;;;;;;6.25;1.42;;;21.80;66.80;;;;;;5033195;28;20573;-74
2021/06/15 11:42:28;;;;;;;4.90;1.38;;;22.20;65.70;;;;;;5033675;28;20069;-75
2021/06/15 11:44:57;;;;;;;9.07;2.53;;;22.20;66.80;;;;;;5033145;28;20067;-74
2021/06/15 11:47:28;;;;;;;9.50;1.92;;;22.00;65.40;;;;;;5033284;28;20038;-73
2021/06/15 11:50:23;;;;;;;7.20;1.70;;;21.60;67.40;;;;;;5033070;28;20041;-72
2021/06/15 11:53:04;;;;;;;5.93;1.98;;;21.60;70.40;;;;;;5033294;28;20037;-72
2021/06/15 11:55:31;;;;;;;6.72;1.70;;;21.30;71.40;;;;;;5033288;28;20068;-72
2021/06/15 11:58:20;;;;;;;6.43;1.70;;;21.20;68.10;;;;;;5033712;28;20362;-72
2021/06/15 12:00:47;;;;;;;7.22;1.58;;;20.70;68.10;;;;;;5032437;28;20049;-73
2021/06/15 12:03:18;;;;;;;3.25;1.20;;;21.10;72.20;;;;;;5033590;28;20046;-71
2021/06/15 12:05:46;;;;;;;7.80;1.40;;;21.20;67.50;;;;;;5032974;28;20493;-71
2021/06/15 12:08:12;;;;;;;5.13;1.38;;;21.00;67.10;;;;;;5033159;28;20038;-71
2021/06/15 12:10:39;;;;;;;8.80;2.03;;;21.10;67.30;;;;;;5031285;28;20041;-72
2021/06/15 12:13:19;;;;;;;10.18;1.70;;;21.00;70.50;;;;;;5033531;28;20125;-71
2021/06/15 12:16:12;;;;;;;7.10;1.40;;;20.90;71.50;;;;;;5033471;28;20564;-71
2021/06/15 12:18:43;;;;;;;6.10;1.35;;;21.10;72.90;;;;;;5032458;28;20429;-72
2021/06/15 12:21:18;;;;;;;7.70;2.15;;;20.80;68.90;;;;;;5033035;28;20470;-72
2021/06/15 12:23:48;;;;;;;10.10;2.13;;;21.30;69.80;;;;;;5032127;28;20468;-70
2021/06/15 12:26:36;;;;;;;6.65;1.60;;;21.40;68.00;;;;;;5035513;28;20046;-72
2021/06/15 12:29:05;;;;;;;4.32;1.30;;;21.30;68.80;;;;;;5036433;28;20049;-72
2021/06/15 12:31:38;;;;;;;3.65;1.13;;;21.20;69.10;;;;;;5036518;28;20045;-72
2021/06/15 12:34:07;;;;;;;9.07;2.15;;;21.50;71.40;;;;;;5036572;28;20516;-71
2021/06/15 12:36:42;;;;;;;5.25;1.70;;;21.70;70.40;;;;;;5036543;28;20444;-72
2021/06/15 12:39:11;;;;;;;5.45;1.42;;;21.50;67.90;;;;;;5036039;28;20397;-72
2021/06/15 12:41:44;;;;;;;5.60;1.52;;;21.30;67.60;;;;;;5036311;28;20419;-71
2021/06/15 12:44:10;;;;;;;16.90;2.83;;;21.00;67.90;;;;;;5036908;28;20037;-72
2021/06/15 12:46:38;;;;;;;8.68;1.77;;;20.70;68.40;;;;;;5036548;28;20038;-71
2021/06/15 12:49:13;;;;;;;5.72;1.67;;;20.90;67.60;;;;;;5036037;28;20048;-72
2021/06/15 12:51:57;;;;;;;6.18;1.92;;;20.80;69.20;;;;;;5036317;28;20486;-72
2021/06/15 12:54:37;;;;;;;5.40;1.02;;;21.00;69.60;;;;;;5035040;28;20045;-71
2021/06/15 12:57:20;;;;;;;10.23;2.08;;;21.20;67.70;;;;;;5036256;28;20076;-72
2021/06/15 13:00:05;;;;;;;5.13;1.67;;;21.10;66.10;;;;;;5036034;28;20053;-72
2021/06/15 13:02:31;;;;;;;5.63;1.38;;;21.00;66.70;;;;;;5036362;28;20044;-72
2021/06/15 13:04:59;;;;;;;5.85;1.40;;;20.90;70.10;;;;;;5036146;28;20419;-72
2021/06/15 13:07:27;;;;;;;6.93;1.27;;;21.00;69.40;;;;;;5035872;28;20052;-72
2021/06/15 13:09:54;;;;;;;4.03;1.65;;;21.30;66.50;;;;;;5035644;28;20045;-71
2021/06/15 13:12:28;;;;;;;4.68;1.30;;;21.50;64.70;;;;;;5035770;28;20038;-71